createdAt,value
2019-05-23T00:01:13.100Z,12.43
2019-05-23T00:03:52.765Z,18.87
2019-05-23T00:06:26.773Z,17.43
2019-05-23T00:09:00.224Z,16.93
2019-05-23T00:11:40.290Z,11.53
2019-05-23T00:14:22.636Z,7.80
2019-05-23T00:16:55.056Z,12.57
2019-05-23T00:19:27.976Z,20.30
2019-05-23T00:22:00.804Z,13.43
2019-05-23T00:24:32.597Z,15.63
2019-05-23T00:27:06.352Z,11.33
2019-05-23T00:29:40.402Z,17.97
2019-05-23T00:32:20.996Z,7.83
2019-05-23T00:34:53.951Z,14.13
2019-05-23T00:37:29.403Z,14.30
2019-05-23T00:40:01.109Z,16.00
2019-05-23T00:42:33.429Z,9.30
2019-05-23T00:45:06.364Z,15.33
2019-05-23T00:47:38.749Z,9.53
2019-05-23T00:50:11.624Z,11.77
2019-05-23T00:52:43.469Z,18.80
2019-05-23T00:55:16.204Z,10.97
2019-05-23T00:57:48.504Z,12.83
2019-05-23T01:00:22.728Z,14.57
2019-05-23T01:02:56.340Z,10.50
2019-05-23T01:05:28.964Z,8.07
2019-05-23T01:08:01.931Z,10.17
2019-05-23T01:10:34.535Z,8.27
2019-05-23T01:13:07.861Z,15.83
2019-05-23T01:15:41.151Z,12.70
2019-05-23T01:18:13.595Z,17.37
2019-05-23T01:21:02.177Z,10.80
2019-05-23T01:23:36.431Z,10.93
2019-05-23T01:26:09.645Z,13.17
2019-05-23T01:28:42.385Z,14.63
2019-05-23T01:31:18.428Z,22.50
2019-05-23T01:33:50.241Z,12.67
2019-05-23T01:36:22.438Z,16.87
2019-05-23T01:38:54.453Z,17.40
2019-05-23T01:41:27.060Z,11.60
2019-05-23T01:43:59.682Z,11.17
2019-05-23T01:46:31.493Z,21.00
2019-05-23T01:49:04.025Z,15.30
2019-05-23T01:51:37.328Z,10.47
2019-05-23T01:54:11.290Z,16.63
2019-05-23T01:56:43.809Z,14.57
2019-05-23T01:59:16.901Z,16.03
2019-05-23T02:01:49.175Z,15.00
2019-05-23T02:04:21.978Z,12.73
2019-05-23T02:06:54.720Z,10.13
2019-05-23T02:09:27.362Z,14.37
2019-05-23T02:12:00.570Z,17.13
2019-05-23T02:14:33.391Z,12.00
2019-05-23T02:17:06.687Z,11.13
2019-05-23T02:19:38.788Z,24.90
2019-05-23T02:22:12.479Z,15.97
2019-05-23T02:24:45.848Z,14.93
2019-05-23T02:27:18.244Z,19.23
2019-05-23T02:29:50.049Z,21.37
2019-05-23T02:32:22.784Z,21.10
2019-05-23T02:34:54.518Z,14.37
2019-05-23T02:37:51.830Z,15.77
2019-05-23T02:40:31.603Z,21.03
2019-05-23T02:43:04.606Z,20.70
2019-05-23T02:45:42.599Z,22.17
2019-05-23T02:48:21.230Z,29.17
2019-05-23T02:50:57.909Z,23.30
2019-05-23T02:53:32.830Z,24.77
2019-05-23T02:56:09.590Z,25.63
2019-05-23T02:59:12.598Z,26.13
2019-05-23T03:02:23.345Z,25.07
2019-05-23T03:04:57.976Z,29.43
2019-05-23T03:07:33.211Z,25.47
2019-05-23T03:10:05.612Z,29.53
2019-05-23T03:12:38.934Z,25.87
2019-05-23T03:15:12.440Z,30.53
2019-05-23T03:17:50.110Z,32.80
2019-05-23T03:20:23.430Z,31.83
2019-05-23T03:22:59.478Z,36.60
2019-05-23T03:26:13.556Z,38.83
2019-05-23T03:28:45.950Z,32.97
2019-05-23T03:31:43.837Z,36.07
2019-05-23T03:34:19.354Z,34.30
2019-05-23T03:36:52.803Z,39.13
2019-05-23T03:39:25.533Z,41.77
2019-05-23T03:41:57.307Z,43.23
2019-05-23T03:44:29.509Z,39.30
2019-05-23T03:47:01.233Z,37.07
2019-05-23T03:49:33.621Z,30.60
2019-05-23T03:52:08.192Z,33.03
2019-05-23T03:54:42.410Z,34.53
2019-05-23T03:57:14.580Z,31.80
2019-05-23T03:59:46.582Z,30.80
2019-05-23T04:02:21.710Z,36.93
2019-05-23T04:04:53.622Z,32.40
2019-05-23T04:07:25.740Z,26.30
2019-05-23T04:09:57.557Z,34.73
2019-05-23T04:12:29.782Z,30.53
2019-05-23T04:15:03.196Z,29.33
2019-05-23T04:17:35.612Z,23.93
2019-05-23T04:20:08.272Z,27.90
2019-05-23T04:22:40.293Z,19.43
2019-05-23T04:25:12.392Z,18.40
2019-05-23T04:27:44.293Z,13.40
2019-05-23T04:30:16.546Z,16.27
2019-05-23T04:32:48.898Z,13.20
2019-05-23T04:35:20.833Z,16.37
2019-05-23T04:37:53.217Z,13.03
2019-05-23T04:40:25.217Z,12.07
2019-05-23T04:42:56.945Z,11.27
2019-05-23T04:45:29.454Z,8.63
2019-05-23T04:48:01.273Z,8.63
2019-05-23T04:50:33.331Z,7.87
2019-05-23T04:53:06.052Z,9.77
2019-05-23T04:55:38.869Z,11.20
2019-05-23T04:58:12.092Z,9.73
2019-05-23T05:00:43.801Z,12.23
2019-05-23T05:03:18.111Z,16.53
2019-05-23T05:05:50.512Z,9.93
2019-05-23T05:08:22.230Z,10.07
2019-05-23T05:10:54.511Z,9.63
2019-05-23T05:13:26.764Z,8.23
2019-05-23T05:15:58.694Z,8.67
2019-05-23T05:18:30.613Z,11.50
2019-05-23T05:21:02.407Z,6.93
2019-05-23T05:23:34.112Z,8.37
2019-05-23T05:26:10.621Z,10.43
2019-05-23T05:28:42.949Z,5.73
2019-05-23T05:31:15.010Z,5.07
2019-05-23T05:33:46.924Z,8.30
2019-05-23T05:36:18.952Z,5.17
2019-05-23T05:38:51.377Z,7.50
2019-05-23T05:41:23.804Z,6.20
2019-05-23T05:43:55.921Z,8.43
2019-05-23T05:46:28.222Z,10.17
2019-05-23T05:49:00.509Z,5.07
2019-05-23T05:51:33.684Z,8.43
2019-05-23T05:54:06.635Z,6.90
2019-05-23T05:56:38.421Z,9.05
2019-05-23T05:59:10.240Z,8.65
2019-05-23T06:01:42.461Z,4.75
2019-05-23T06:04:14.268Z,4.83
2019-05-23T06:06:59.304Z,5.67
2019-05-23T06:09:31.733Z,10.72
2019-05-23T06:12:05.440Z,5.15
2019-05-23T06:14:37.290Z,5.72
2019-05-23T06:17:11.854Z,8.38
2019-05-23T06:19:44.477Z,4.12
2019-05-23T06:22:17.453Z,7.85
2019-05-23T06:24:53.613Z,9.03
2019-05-23T06:27:23.836Z,8.60
2019-05-23T06:29:55.864Z,8.23
2019-05-23T06:32:29.605Z,3.95
2019-05-23T06:35:01.545Z,3.40
2019-05-23T06:37:34.639Z,8.15
2019-05-23T06:40:07.348Z,3.85
2019-05-23T06:42:39.405Z,13.03
2019-05-23T06:45:11.923Z,6.20
2019-05-23T06:47:43.952Z,7.00
2019-05-23T06:50:17.093Z,5.10
2019-05-23T06:52:48.854Z,10.08
2019-05-23T06:55:20.768Z,9.25
2019-05-23T06:57:52.918Z,7.72
2019-05-23T07:00:27.664Z,6.93
2019-05-23T07:02:59.596Z,11.87
2019-05-23T07:05:34.994Z,9.27
2019-05-23T07:08:07.145Z,7.47
2019-05-23T07:10:41.114Z,6.20
2019-05-23T07:13:13.347Z,6.08
2019-05-23T07:15:45.165Z,7.10
2019-05-23T07:18:16.903Z,8.15
2019-05-23T07:20:48.720Z,3.25
2019-05-23T07:23:20.742Z,11.48
2019-05-23T07:25:52.461Z,3.37
2019-05-23T07:28:24.435Z,6.55
2019-05-23T07:30:57.078Z,5.45
2019-05-23T07:33:28.937Z,7.95
2019-05-23T07:36:01.385Z,6.83
2019-05-23T07:38:33.186Z,8.23
2019-05-23T07:41:05.033Z,6.30
2019-05-23T07:43:36.951Z,4.97
2019-05-23T07:46:08.774Z,12.85
2019-05-23T07:48:40.760Z,7.70
2019-05-23T07:51:12.488Z,7.35
2019-05-23T07:54:07.311Z,9.85
2019-05-23T07:56:39.415Z,4.05
2019-05-23T07:59:11.216Z,7.37
2019-05-23T08:01:45.769Z,7.47
2019-05-23T08:04:21.966Z,4.58
2019-05-23T08:06:52.049Z,5.37
2019-05-23T08:09:24.239Z,6.08
2019-05-23T08:11:56.346Z,6.12
2019-05-23T08:14:28.249Z,4.22
2019-05-23T08:17:00.169Z,6.40
2019-05-23T08:19:46.939Z,3.92
2019-05-23T08:22:05.848Z,4.22
2019-05-23T08:24:38.153Z,5.85
2019-05-23T08:27:10.371Z,2.77
2019-05-23T08:29:42.384Z,10.18
2019-05-23T08:32:15.341Z,4.47
2019-05-23T08:34:47.264Z,4.75
2019-05-23T08:37:19.313Z,3.70
2019-05-23T08:39:51.252Z,7.58
2019-05-23T08:42:24.357Z,6.85
2019-05-23T08:44:56.553Z,2.80
2019-05-23T08:47:28.272Z,3.98
2019-05-23T08:50:00.177Z,2.17
2019-05-23T08:52:31.995Z,4.58
2019-05-23T08:55:12.255Z,3.40
2019-05-23T08:57:44.364Z,3.83
2019-05-23T09:00:17.489Z,8.13
2019-05-23T09:02:50.822Z,4.78
2019-05-23T09:05:26.114Z,3.70
2019-05-23T09:07:58.430Z,6.12
2019-05-23T09:10:30.428Z,8.73
2019-05-23T09:13:03.100Z,4.50
2019-05-23T09:15:35.030Z,3.75
2019-05-23T09:18:07.224Z,2.02
2019-05-23T09:20:39.584Z,2.15
2019-05-23T09:23:11.821Z,4.80
2019-05-23T09:25:43.642Z,2.20
2019-05-23T09:28:16.760Z,3.05
2019-05-23T09:30:48.977Z,5.10
2019-05-23T09:33:20.819Z,2.65
2019-05-23T09:35:52.707Z,4.12
2019-05-23T09:38:24.519Z,4.65
2019-05-23T09:40:56.331Z,3.92
2019-05-23T09:43:28.036Z,3.95
2019-05-23T09:45:59.870Z,3.90
2019-05-23T09:48:31.819Z,4.78
2019-05-23T09:51:03.726Z,3.47
2019-05-23T09:53:35.871Z,3.42
2019-05-23T09:56:07.708Z,4.47
2019-05-23T09:58:39.649Z,2.02
2019-05-23T10:01:12.768Z,1.65
2019-05-23T10:03:44.794Z,1.67
2019-05-23T10:06:16.686Z,3.25
2019-05-23T10:08:48.413Z,2.55
2019-05-23T10:11:20.128Z,4.90
2019-05-23T10:13:52.012Z,4.45
2019-05-23T10:16:23.858Z,3.17
2019-05-23T10:18:55.578Z,5.70
2019-05-23T10:21:27.676Z,3.55
2019-05-23T10:23:59.499Z,2.98
2019-05-23T10:26:31.488Z,3.60
2019-05-23T10:29:03.745Z,2.65
2019-05-23T10:31:35.441Z,6.03
2019-05-23T10:34:07.297Z,2.87
2019-05-23T10:36:39.128Z,2.45
2019-05-23T10:39:12.378Z,9.58
2019-05-23T10:41:44.462Z,3.98
2019-05-23T10:44:16.605Z,2.02
2019-05-23T10:46:48.440Z,4.15
2019-05-23T10:49:20.275Z,2.00
2019-05-23T10:51:52.436Z,5.33
2019-05-23T10:54:24.387Z,3.12
2019-05-23T10:56:56.177Z,2.47
2019-05-23T10:59:28.264Z,3.47
2019-05-23T11:02:00.002Z,1.65
2019-05-23T11:04:32.096Z,2.22
2019-05-23T11:07:05.005Z,5.42
2019-05-23T11:09:38.477Z,2.58
2019-05-23T11:12:10.656Z,2.00
2019-05-23T11:14:42.384Z,1.65
2019-05-23T11:17:14.485Z,2.67
2019-05-23T11:19:46.307Z,2.45
2019-05-23T11:22:18.865Z,3.42
2019-05-23T11:24:50.585Z,5.00
2019-05-23T11:27:22.617Z,3.72
2019-05-23T11:29:54.324Z,5.58
2019-05-23T11:32:26.305Z,2.98
2019-05-23T11:34:58.126Z,5.62
2019-05-23T11:37:29.938Z,1.80
2019-05-23T11:40:02.234Z,3.10
2019-05-23T11:42:34.257Z,3.42
2019-05-23T11:45:07.418Z,2.98
2019-05-23T11:47:39.200Z,4.03
2019-05-23T11:50:11.643Z,3.25
2019-05-23T11:52:43.436Z,2.00
2019-05-23T11:55:15.350Z,2.05
2019-05-23T11:57:47.268Z,1.92
2019-05-23T12:00:37.189Z,4.10
2019-05-23T12:03:09.173Z,2.25
2019-05-23T12:05:41.100Z,2.77
2019-05-23T12:08:12.853Z,4.37
2019-05-23T12:10:44.757Z,2.58
2019-05-23T12:13:16.497Z,2.15
2019-05-23T12:15:49.037Z,2.50
2019-05-23T12:18:21.997Z,4.37
2019-05-23T12:20:55.413Z,3.08
2019-05-23T12:23:27.373Z,3.52
2019-05-23T12:25:59.089Z,3.72
2019-05-23T12:28:30.922Z,1.65
2019-05-23T12:31:03.686Z,2.42
2019-05-23T12:33:35.629Z,5.55
2019-05-23T12:36:09.650Z,4.20
2019-05-23T12:38:41.890Z,2.83
2019-05-23T12:41:14.008Z,1.40
2019-05-23T12:43:45.897Z,3.62
2019-05-23T12:46:17.718Z,1.77
2019-05-23T12:49:05.042Z,2.90
2019-05-23T12:51:38.902Z,3.80
2019-05-23T12:54:11.113Z,5.42
2019-05-23T12:56:43.183Z,2.50
2019-05-23T12:59:15.446Z,5.53
2019-05-23T13:01:49.449Z,3.05
2019-05-23T13:04:22.270Z,2.27
2019-05-23T13:06:54.742Z,4.10
2019-05-23T13:09:26.642Z,4.00
2019-05-23T13:11:58.402Z,1.67
2019-05-23T13:14:30.293Z,3.35
2019-05-23T13:17:02.254Z,3.27
2019-05-23T13:19:34.400Z,2.58
2019-05-23T13:22:07.510Z,5.42
2019-05-23T13:24:51.898Z,10.25
2019-05-23T13:27:13.690Z,3.80
2019-05-23T13:29:45.613Z,4.67
2019-05-23T13:32:17.331Z,2.47
2019-05-23T13:34:49.073Z,3.45
2019-05-23T13:37:22.173Z,9.65
2019-05-23T13:39:54.022Z,2.83
2019-05-23T13:42:26.010Z,7.83
2019-05-23T13:44:57.986Z,5.25
2019-05-23T13:47:29.856Z,11.83
2019-05-23T13:50:01.714Z,4.92
2019-05-23T13:52:33.779Z,6.87
2019-05-23T13:55:05.936Z,4.42
2019-05-23T13:57:38.198Z,5.15
2019-05-23T14:00:10.718Z,3.50
2019-05-23T14:02:42.857Z,2.83
2019-05-23T14:05:19.224Z,4.13
2019-05-23T14:08:01.994Z,3.00
2019-05-23T14:10:24.835Z,8.20
2019-05-23T14:12:59.004Z,4.37
2019-05-23T14:15:38.667Z,2.87
2019-05-23T14:18:12.610Z,3.90
2019-05-23T14:20:44.524Z,3.37
2019-05-23T14:23:22.690Z,5.50
2019-05-23T14:25:54.854Z,8.57
2019-05-23T14:28:27.263Z,2.80
2019-05-23T14:31:04.669Z,3.30
2019-05-23T14:33:55.205Z,3.07
2019-05-23T14:36:55.861Z,2.40
2019-05-23T14:39:36.964Z,5.75
2019-05-23T14:42:21.524Z,5.37
2019-05-23T14:44:53.372Z,3.73
2019-05-23T14:47:35.844Z,5.40
2019-05-23T14:50:32.474Z,2.93
2019-05-23T14:53:05.162Z,5.63
2019-05-23T14:55:37.037Z,5.77
2019-05-23T14:58:10.377Z,6.67
2019-05-23T15:00:44.359Z,3.57
2019-05-23T15:03:17.003Z,8.27
2019-05-23T15:05:48.896Z,6.80
2019-05-23T15:08:21.277Z,6.97
2019-05-23T15:10:52.977Z,5.03
2019-05-23T15:13:24.839Z,2.10
2019-05-23T15:15:56.730Z,2.10
2019-05-23T15:18:28.601Z,5.90
2019-05-23T15:21:00.413Z,4.17
2019-05-23T15:23:32.569Z,4.40
2019-05-23T15:26:21.437Z,2.80
2019-05-23T15:28:38.180Z,4.20
2019-05-23T15:31:10.382Z,3.67
2019-05-23T15:33:42.213Z,6.50
2019-05-23T15:36:14.350Z,2.37
2019-05-23T15:38:46.318Z,4.93
2019-05-23T15:41:18.546Z,5.20
2019-05-23T15:43:50.448Z,2.43
2019-05-23T15:46:22.489Z,3.23
2019-05-23T15:48:54.256Z,8.27
2019-05-23T15:51:32.301Z,4.97
2019-05-23T15:54:13.271Z,2.67
2019-05-23T15:56:56.294Z,3.00
2019-05-23T15:59:50.349Z,3.23
2019-05-23T16:02:26.293Z,2.83
2019-05-23T16:04:59.463Z,4.00
2019-05-23T16:07:31.245Z,3.27
2019-05-23T16:10:05.017Z,4.17
2019-05-23T16:12:37.337Z,7.60
2019-05-23T16:15:09.888Z,4.77
2019-05-23T16:17:41.722Z,5.70
2019-05-23T16:20:13.968Z,8.63
2019-05-23T16:22:46.105Z,4.87
2019-05-23T16:25:18.547Z,11.00
2019-05-23T16:27:50.793Z,4.03
2019-05-23T16:30:22.618Z,6.60
2019-05-23T16:32:54.396Z,6.47
2019-05-23T16:35:26.534Z,1.93
2019-05-23T16:37:58.380Z,2.93
2019-05-23T16:40:30.174Z,3.77
2019-05-23T16:43:02.076Z,3.73
2019-05-23T16:45:33.911Z,2.47
2019-05-23T16:48:05.741Z,9.90
2019-05-23T16:50:37.710Z,4.83
2019-05-23T16:53:09.433Z,2.70
2019-05-23T16:55:50.953Z,1.60
2019-05-23T16:58:41.184Z,2.10
2019-05-23T17:01:32.794Z,2.97
2019-05-23T17:04:20.042Z,4.50
2019-05-23T17:06:57.449Z,4.60
2019-05-23T17:10:06.603Z,2.40
2019-05-23T17:12:38.460Z,2.60
2019-05-23T17:15:19.611Z,3.47
2019-05-23T17:18:09.899Z,1.57
2019-05-23T17:21:04.736Z,3.43
2019-05-23T17:23:57.172Z,6.93
2019-05-23T17:26:33.972Z,9.23
2019-05-23T17:29:14.003Z,1.43
2019-05-23T17:31:47.811Z,3.53
2019-05-23T17:34:19.517Z,3.47
2019-05-23T17:36:51.467Z,5.50
2019-05-23T17:39:24.074Z,3.37
2019-05-23T17:41:56.017Z,4.90
2019-05-23T17:44:27.821Z,2.30
2019-05-23T17:46:59.572Z,5.53
2019-05-23T17:49:31.985Z,2.53
2019-05-23T17:52:04.085Z,3.60
2019-05-23T17:54:35.998Z,6.97
2019-05-23T17:57:08.461Z,7.47
2019-05-23T17:59:40.260Z,2.57
2019-05-23T18:02:13.385Z,7.50
2019-05-23T18:04:45.300Z,1.97
2019-05-23T18:07:17.603Z,4.93
2019-05-23T18:09:49.803Z,8.83
2019-05-23T18:12:22.400Z,4.77
2019-05-23T18:14:54.210Z,4.67
2019-05-23T18:17:26.465Z,6.90
2019-05-23T18:19:58.685Z,4.17
2019-05-23T18:22:31.920Z,5.03
2019-05-23T18:25:04.877Z,4.00
2019-05-23T18:27:36.927Z,6.80
2019-05-23T18:30:15.332Z,9.87
2019-05-23T18:32:47.691Z,4.07
2019-05-23T18:35:20.113Z,2.23
2019-05-23T18:37:51.857Z,1.63
2019-05-23T18:40:23.940Z,8.57
2019-05-23T18:42:55.862Z,0.80
2019-05-23T18:45:29.186Z,1.97
2019-05-23T18:48:01.169Z,4.37
2019-05-23T18:50:33.235Z,3.60
2019-05-23T18:53:05.982Z,3.17
2019-05-23T18:55:38.212Z,5.17
2019-05-23T18:58:10.098Z,11.63
2019-05-23T19:01:19.258Z,12.47
2019-05-23T19:03:51.734Z,7.07
2019-05-23T19:06:24.056Z,12.30
2019-05-23T19:08:56.254Z,10.53
2019-05-23T19:11:28.713Z,20.17
2019-05-23T19:14:00.443Z,12.97
2019-05-23T19:16:32.473Z,5.93
2019-05-23T19:19:04.299Z,11.27
2019-05-23T19:21:36.961Z,4.27
2019-05-23T19:24:09.736Z,4.30
2019-05-23T19:26:41.475Z,5.17
2019-05-23T19:29:13.614Z,5.93
2019-05-23T19:31:46.664Z,3.83
2019-05-23T19:34:18.830Z,4.23
2019-05-23T19:36:51.399Z,5.50
2019-05-23T19:39:24.356Z,4.97
2019-05-23T19:41:56.309Z,10.20
2019-05-23T19:44:28.266Z,9.40
2019-05-23T19:47:00.358Z,4.40
2019-05-23T19:49:32.198Z,6.60
2019-05-23T19:52:06.208Z,3.67
2019-05-23T19:54:38.905Z,8.83
2019-05-23T19:57:10.786Z,6.30
2019-05-23T19:59:42.922Z,3.33
2019-05-23T20:02:34.815Z,7.03
2019-05-23T20:05:11.810Z,4.83
2019-05-23T20:07:43.769Z,2.73
2019-05-23T20:10:15.824Z,3.57
2019-05-23T20:12:47.586Z,14.13
2019-05-23T20:15:19.584Z,13.63
2019-05-23T20:17:52.331Z,8.47
2019-05-23T20:20:24.741Z,8.47
2019-05-23T20:22:56.960Z,3.80
2019-05-23T20:25:29.200Z,8.30
2019-05-23T20:28:01.013Z,6.63
2019-05-23T20:31:01.871Z,5.30
2019-05-23T20:33:33.808Z,5.80
2019-05-23T20:36:12.256Z,8.53
2019-05-23T20:38:43.526Z,5.10
2019-05-23T20:41:15.979Z,9.53
2019-05-23T20:43:47.828Z,13.23
2019-05-23T20:46:20.328Z,10.40
2019-05-23T20:48:52.061Z,7.03
2019-05-23T20:51:24.374Z,5.97
2019-05-23T20:53:56.500Z,7.07
2019-05-23T20:56:28.391Z,4.27
2019-05-23T20:59:00.309Z,8.57
2019-05-23T21:01:36.265Z,5.80
2019-05-23T21:04:08.104Z,7.07
2019-05-23T21:06:39.912Z,9.27
2019-05-23T21:09:15.391Z,4.40
2019-05-23T21:11:47.934Z,6.17
2019-05-23T21:14:20.444Z,4.57
2019-05-23T21:16:52.400Z,5.43
2019-05-23T21:19:24.521Z,4.73
2019-05-23T21:21:56.262Z,7.23
2019-05-23T21:24:29.660Z,6.63
2019-05-23T21:27:01.593Z,7.60
2019-05-23T21:29:33.297Z,7.23
2019-05-23T21:32:05.328Z,4.97
2019-05-23T21:34:37.151Z,8.43
2019-05-23T21:37:08.980Z,10.77
2019-05-23T21:39:40.880Z,4.97
2019-05-23T21:42:12.810Z,5.40
2019-05-23T21:44:44.521Z,6.63
2019-05-23T21:47:16.248Z,5.57
2019-05-23T21:49:48.143Z,11.43
2019-05-23T21:52:20.032Z,5.93
2019-05-23T21:54:51.826Z,6.27
2019-05-23T21:57:23.554Z,11.73
2019-05-23T21:59:55.360Z,8.70
2019-05-23T22:02:32.957Z,7.73
2019-05-23T22:05:10.742Z,6.40
2019-05-23T22:07:42.717Z,10.93
2019-05-23T22:10:14.607Z,8.03
2019-05-23T22:12:46.368Z,8.53
2019-05-23T22:15:34.496Z,7.03
2019-05-23T22:18:06.817Z,9.13
2019-05-23T22:20:38.633Z,8.40
2019-05-23T22:23:10.449Z,6.93
2019-05-23T22:25:42.145Z,4.80
2019-05-23T22:28:14.177Z,10.03
2019-05-23T22:30:46.076Z,6.13
2019-05-23T22:33:19.049Z,6.20
2019-05-23T22:35:50.876Z,7.17
2019-05-23T22:38:22.889Z,13.97
2019-05-23T22:40:54.750Z,11.63
2019-05-23T22:43:26.773Z,5.13
2019-05-23T22:45:58.718Z,7.67
2019-05-23T22:48:30.901Z,8.40
2019-05-23T22:51:02.607Z,6.33
2019-05-23T22:53:34.334Z,8.33
2019-05-23T22:56:06.025Z,6.27
2019-05-23T22:58:37.802Z,8.90
2019-05-23T23:01:09.888Z,10.50
2019-05-23T23:03:41.707Z,7.37
2019-05-23T23:06:13.710Z,10.00
2019-05-23T23:08:45.538Z,5.73
2019-05-23T23:11:17.583Z,8.03
2019-05-23T23:13:49.492Z,6.80
2019-05-23T23:16:21.282Z,8.10
2019-05-23T23:18:53.014Z,6.70
2019-05-23T23:21:25.242Z,8.70
2019-05-23T23:23:57.050Z,6.37
2019-05-23T23:26:28.845Z,6.13
2019-05-23T23:29:00.892Z,4.87
2019-05-23T23:31:32.800Z,7.03
2019-05-23T23:34:04.621Z,7.03
2019-05-23T23:36:36.326Z,6.80
2019-05-23T23:39:08.247Z,8.00
2019-05-23T23:41:40.066Z,7.17
2019-05-23T23:44:11.898Z,4.13
2019-05-23T23:47:02.102Z,4.23
2019-05-23T23:49:52.234Z,4.33
2019-05-23T23:52:42.425Z,3.27
2019-05-23T23:55:32.688Z,6.50
2019-05-23T23:58:04.265Z,4.77
